Time;durP1;ratioP1;P1;durP2;ratioP2;P2;SDS_P1;SDS_P2;PMS_P1;PMS_P2;Temp;Humidity;BMP_temperature;BMP_pressure;BME280_temperature;BME280_humidity;BME280_pressure;Samples;Min_cycle;Max_cycle;Signal;HPM_P1;HPM_P2
2022/11/09 00:08:46;;;;;;;11.20;6.78;;;;;;;;;;21088890;28;20051;-62
2022/11/09 00:18:48;;;;;;;11.68;7.15;;;;;;;;;;21088785;28;20093;-61
2022/11/09 00:28:50;;;;;;;12.02;7.85;;;;;;;;;;21090701;28;20412;-62
2022/11/09 00:38:53;;;;;;;12.27;8.68;;;;;;;;;;21087702;28;20044;-61
2022/11/09 00:48:55;;;;;;;10.52;6.05;;;;;;;;;;21086101;28;20141;-61
2022/11/09 00:58:57;;;;;;;7.63;5.30;;;;;;;;;;21085616;28;20044;-61
2022/11/09 01:08:59;;;;;;;6.07;4.00;;;;;;;;;;21084571;28;20055;-62
2022/11/09 01:19:01;;;;;;;7.38;4.50;;;;;;;;;;21085535;28;20487;-61
2022/11/09 01:29:04;;;;;;;6.18;3.65;;;;;;;;;;21084382;28;20511;-61
2022/11/09 01:39:06;;;;;;;5.93;3.33;;;;;;;;;;21082823;28;20076;-61
2022/11/09 01:49:13;;;;;;;3.25;2.70;;;;;;;;;;21081440;28;20056;-63
2022/11/09 01:59:17;;;;;;;3.50;2.25;;;;;;;;;;21081620;28;20048;-62
2022/11/09 02:09:28;;;;;;;3.58;1.95;;;;;;;;;;21081417;28;20048;-60
2022/11/09 02:19:31;;;;;;;2.40;1.70;;;;;;;;;;21081166;28;20044;-62
2022/11/09 02:29:35;;;;;;;4.22;1.85;;;;;;;;;;21079857;28;20093;-62
2022/11/09 02:39:38;;;;;;;8.15;3.10;;;;;;;;;;21079178;28;20105;-61
2022/11/09 02:49:41;;;;;;;5.45;1.90;;;;;;;;;;21078006;28;20056;-61
2022/11/09 02:59:43;;;;;;;3.58;1.52;;;;;;;;;;21078880;28;20457;-62
2022/11/09 03:09:45;;;;;;;4.53;1.65;;;;;;;;;;21077780;28;20059;-62
2022/11/09 03:19:48;;;;;;;4.18;1.83;;;;;;;;;;21077325;28;20179;-62
2022/11/09 03:29:50;;;;;;;6.38;1.70;;;;;;;;;;21077277;28;20048;-62
2022/11/09 03:39:53;;;;;;;6.53;2.00;;;;;;;;;;21091888;28;20100;-62
2022/11/09 03:50:02;;;;;;;5.82;2.00;;;;;;;;;;21074178;28;20063;-62
2022/11/09 04:00:06;;;;;;;5.78;1.70;;;;;;;;;;21090453;28;20048;-62
2022/11/09 04:10:09;;;;;;;6.35;1.70;;;;;;;;;;21089442;28;20048;-63
2022/11/09 04:20:12;;;;;;;3.97;1.73;;;;;;;;;;21089243;28;20170;-62
2022/11/09 04:30:15;;;;;;;7.18;2.08;;;;;;;;;;21087434;28;20090;-62
2022/11/09 04:40:20;;;;;;;5.53;2.30;;;;;;;;;;21086884;28;20465;-61
2022/11/09 04:50:31;;;;;;;5.28;1.88;;;;;;;;;;21084350;28;20423;-62
2022/11/09 05:00:33;;;;;;;7.13;1.80;;;;;;;;;;21085762;28;20055;-61
2022/11/09 05:10:36;;;;;;;6.50;2.25;;;;;;;;;;21084072;28;20084;-61
2022/11/09 05:20:38;;;;;;;5.80;2.03;;;;;;;;;;21083270;28;20094;-62
2022/11/09 05:30:47;;;;;;;5.40;1.90;;;;;;;;;;21066741;28;20509;-62
2022/11/09 05:40:50;;;;;;;3.78;1.92;;;;;;;;;;21082731;28;20048;-61
2022/11/09 05:50:52;;;;;;;6.10;1.80;;;;;;;;;;21080575;28;20189;-62
2022/11/09 06:00:55;;;;;;;6.43;1.85;;;;;;;;;;21062051;28;20044;-62
2022/11/09 06:11:03;;;;;;;4.03;1.42;;;;;;;;;;21079157;28;20055;-63
2022/11/09 06:21:05;;;;;;;4.50;2.40;;;;;;;;;;21079627;28;20040;-62
2022/11/09 06:31:10;;;;;;;5.32;2.00;;;;;;;;;;21079485;28;20048;-62
2022/11/09 06:41:20;;;;;;;10.32;2.30;;;;;;;;;;21078143;28;20048;-62
2022/11/09 06:51:23;;;;;;;5.80;1.92;;;;;;;;;;21078079;28;20055;-62
2022/11/09 07:01:27;;;;;;;8.93;1.83;;;;;;;;;;21078065;28;20044;-61
2022/11/09 07:11:30;;;;;;;5.50;1.40;;;;;;;;;;21088274;28;20385;-61
2022/11/09 07:21:34;;;;;;;5.20;1.98;;;;;;;;;;21092579;28;20044;-62
2022/11/09 07:31:41;;;;;;;5.80;1.90;;;;;;;;;;21092618;28;20492;-62
2022/11/09 07:41:47;;;;;;;6.07;1.67;;;;;;;;;;21090608;28;20052;-62
2022/11/09 07:51:51;;;;;;;5.25;2.08;;;;;;;;;;21089831;28;20056;-61
2022/11/09 08:01:53;;;;;;;5.57;2.20;;;;;;;;;;21090004;28;20052;-61
2022/11/09 08:11:55;;;;;;;7.22;2.40;;;;;;;;;;21090133;28;20184;-61
2022/11/09 08:21:59;;;;;;;4.65;2.28;;;;;;;;;;21088251;28;20484;-61
2022/11/09 08:32:01;;;;;;;5.22;2.10;;;;;;;;;;21088862;28;20378;-61
2022/11/09 08:42:04;;;;;;;10.73;3.70;;;;;;;;;;21087012;28;20060;-62
2022/11/09 08:52:06;;;;;;;5.90;2.45;;;;;;;;;;21085711;28;20412;-62
2022/11/09 09:02:10;;;;;;;10.30;4.07;;;;;;;;;;21085501;28;20051;-62
2022/11/09 09:12:12;;;;;;;5.38;1.98;;;;;;;;;;21085368;28;20139;-62
2022/11/09 09:22:15;;;;;;;3.78;1.38;;;;;;;;;;21085015;28;20079;-62
2022/11/09 09:32:17;;;;;;;6.93;1.70;;;;;;;;;;21082665;28;20063;-62
2022/11/09 09:42:24;;;;;;;3.50;1.50;;;;;;;;;;21083056;28;20082;-62
2022/11/09 09:52:31;;;;;;;4.10;2.50;;;;;;;;;;21081482;28;20052;-64
2022/11/09 10:02:35;;;;;;;9.23;2.58;;;;;;;;;;21081602;28;20424;-62
2022/11/09 10:12:38;;;;;;;6.15;2.13;;;;;;;;;;21081205;28;20059;-62
2022/11/09 10:22:40;;;;;;;8.98;4.93;;;;;;;;;;21079972;28;20040;-61
2022/11/09 10:32:45;;;;;;;3.67;1.38;;;;;;;;;;21078036;28;20048;-67
2022/11/09 10:43:00;;;;;;;7.18;1.95;;;;;;;;;;21081167;28;20094;-60
2022/11/09 10:53:09;;;;;;;8.23;3.35;;;;;;;;;;21095565;28;20048;-61
2022/11/09 11:03:16;;;;;;;7.45;2.63;;;;;;;;;;21094707;28;20048;-59
2022/11/09 11:13:20;;;;;;;5.95;1.80;;;;;;;;;;21093390;28;20151;-61
2022/11/09 11:23:24;;;;;;;8.23;2.88;;;;;;;;;;21093528;28;20125;-61
2022/11/09 11:33:28;;;;;;;8.07;2.72;;;;;;;;;;21092285;28;20052;-62
2022/11/09 11:43:35;;;;;;;5.85;2.55;;;;;;;;;;21092211;28;20044;-61
2022/11/09 11:53:40;;;;;;;6.00;1.95;;;;;;;;;;21071578;28;20373;-63
2022/11/09 12:03:44;;;;;;;4.75;1.88;;;;;;;;;;21090339;28;20093;-62
2022/11/09 12:13:52;;;;;;;13.63;8.00;;;;;;;;;;21088671;28;20056;-63
2022/11/09 12:23:55;;;;;;;;;;;;;;;;;;21088501;28;20396;-64
2022/11/09 12:34:01;;;;;;;3.63;1.40;;;;;;;;;;21086915;28;19920;-62
2022/11/09 12:44:36;;;;;;;3.75;1.38;;;;;;;;;;21087246;28;20401;-65
2022/11/09 12:54:40;;;;;;;2.67;1.42;;;;;;;;;;20827440;28;20430;-63
2022/11/09 13:04:53;;;;;;;4.35;1.52;;;;;;;;;;20826546;28;20046;-62
2022/11/09 13:14:55;;;;;;;4.32;1.60;;;;;;;;;;20826623;28;20061;-68
2022/11/09 13:25:00;;;;;;;5.60;1.35;;;;;;;;;;20897912;28;20051;-63
2022/11/09 13:35:03;;;;;;;5.38;1.88;;;;;;;;;;21082620;28;20052;-64
2022/11/09 13:45:38;;;;;;;3.47;1.83;;;;;;;;;;21082597;28;20071;-63
2022/11/09 13:55:42;;;;;;;3.67;1.60;;;;;;;;;;20823102;28;20076;-63
2022/11/09 14:05:44;;;;;;;5.70;1.90;;;;;;;;;;20823376;28;20501;-61
2022/11/09 14:16:09;;;;;;;6.32;1.95;;;;;;;;;;20821218;28;20624;-63
2022/11/09 14:26:20;;;;;;;3.80;2.10;;;;;;;;;;20592820;28;20046;-63
2022/11/09 14:36:22;;;;;;;7.65;3.22;;;;;;;;;;20739863;28;20050;-61
2022/11/09 14:46:26;;;;;;;4.47;2.35;;;;;;;;;;20738982;28;20054;-63
2022/11/09 14:56:29;;;;;;;6.30;2.60;;;;;;;;;;20792901;28;20049;-63
2022/11/09 15:06:32;;;;;;;3.90;1.20;;;;;;;;;;20993880;28;20052;-66
2022/11/09 15:16:34;;;;;;;7.80;2.13;;;;;;;;;;20994891;28;20048;-63
2022/11/09 15:26:36;;;;;;;5.15;1.48;;;;;;;;;;20993323;28;20097;-62
2022/11/09 15:36:38;;;;;;;3.42;1.52;;;;;;;;;;21007522;28;20045;-61
2022/11/09 15:46:49;;;;;;;2.55;1.10;;;;;;;;;;21039030;28;20052;-63
2022/11/09 15:56:51;;;;;;;4.38;1.30;;;;;;;;;;21089905;28;20044;-62
2022/11/09 16:06:53;;;;;;;4.22;1.60;;;;;;;;;;21089710;28;20040;-62
2022/11/09 16:16:55;;;;;;;5.18;1.63;;;;;;;;;;21089767;28;20480;-63
2022/11/09 16:26:57;;;;;;;8.88;2.97;;;;;;;;;;21087706;28;20044;-63
2022/11/09 16:36:59;;;;;;;12.18;2.40;;;;;;;;;;21087420;28;20048;-63
2022/11/09 16:47:02;;;;;;;5.50;1.98;;;;;;;;;;21086739;28;20416;-62
2022/11/09 16:57:04;;;;;;;7.45;2.35;;;;;;;;;;21086474;28;20052;-62
2022/11/09 17:07:08;;;;;;;3.03;1.80;;;;;;;;;;21084937;28;20135;-63
2022/11/09 17:17:10;;;;;;;3.72;1.80;;;;;;;;;;21084537;28;20400;-64
2022/11/09 17:27:12;;;;;;;4.20;1.52;;;;;;;;;;21083480;28;20044;-62
2022/11/09 17:37:14;;;;;;;5.97;2.10;;;;;;;;;;21083775;28;20488;-64
2022/11/09 17:47:17;;;;;;;4.07;1.83;;;;;;;;;;21081834;28;20055;-64
2022/11/09 17:57:19;;;;;;;7.70;4.65;;;;;;;;;;21080728;28;20048;-62
2022/11/09 18:07:24;;;;;;;7.70;2.72;;;;;;;;;;21080224;28;20399;-63
2022/11/09 18:17:26;;;;;;;8.73;3.15;;;;;;;;;;21080542;28;20062;-60
2022/11/09 18:27:28;;;;;;;6.38;3.20;;;;;;;;;;21079599;28;20131;-63
2022/11/09 18:37:33;;;;;;;7.55;3.95;;;;;;;;;;21078878;28;20044;-63
2022/11/09 18:47:35;;;;;;;10.35;3.63;;;;;;;;;;21078385;28;20060;-65
2022/11/09 18:57:37;;;;;;;10.57;6.13;;;;;;;;;;21077326;28;20048;-62
2022/11/09 19:07:39;;;;;;;7.50;4.22;;;;;;;;;;21087542;28;20472;-63
2022/11/09 19:17:41;;;;;;;13.00;4.65;;;;;;;;;;21093932;28;20044;-62
2022/11/09 19:27:43;;;;;;;13.48;7.18;;;;;;;;;;21093320;28;20048;-63
2022/11/09 19:37:45;;;;;;;22.65;10.98;;;;;;;;;;21092522;28;20477;-61
2022/11/09 19:47:50;;;;;;;16.98;7.32;;;;;;;;;;21090801;28;20104;-62
2022/11/09 19:57:52;;;;;;;15.52;9.93;;;;;;;;;;21090079;28;20051;-63
2022/11/09 20:07:54;;;;;;;14.63;7.80;;;;;;;;;;21088960;28;20143;-64
2022/11/09 20:17:56;;;;;;;13.20;6.00;;;;;;;;;;21087598;28;20048;-62
2022/11/09 20:27:58;;;;;;;7.75;3.83;;;;;;;;;;21069675;28;20120;-64
2022/11/09 20:38:05;;;;;;;7.60;4.88;;;;;;;;;;21086761;28;20048;-64
2022/11/09 20:48:09;;;;;;;8.55;4.75;;;;;;;;;;21087283;28;20500;-64
2022/11/09 20:58:12;;;;;;;11.65;6.93;;;;;;;;;;21086944;28;20052;-62
2022/11/09 21:08:16;;;;;;;12.30;7.18;;;;;;;;;;21085547;28;20060;-63
2022/11/09 21:18:18;;;;;;;10.60;6.05;;;;;;;;;;21084279;28;20093;-63
2022/11/09 21:38:41;;;;;;;7.57;3.90;;;;;;;;;;21083531;28;20051;-64
2022/11/09 21:48:44;;;;;;;6.97;3.72;;;;;;;;;;21082139;28;20109;-63
2022/11/09 21:58:47;;;;;;;8.02;3.80;;;;;;;;;;21080330;28;20088;-64
2022/11/09 22:08:51;;;;;;;6.65;3.50;;;;;;;;;;21079338;28;20135;-64
2022/11/09 22:29:19;;;;;;;8.02;4.53;;;;;;;;;;21080405;28;20535;-62
2022/11/09 22:39:21;;;;;;;16.40;8.10;;;;;;;;;;21079223;28;20556;-63
2022/11/09 22:49:23;;;;;;;15.43;6.72;;;;;;;;;;21077657;28;20048;-63
2022/11/09 22:59:25;;;;;;;14.50;6.38;;;;;;;;;;21078631;28;20044;-63
2022/11/09 23:09:28;;;;;;;12.02;6.00;;;;;;;;;;21078480;28;20087;-64
2022/11/09 23:19:30;;;;;;;10.63;4.28;;;;;;;;;;21078165;28;20401;-63
2022/11/09 23:29:32;;;;;;;11.38;5.20;;;;;;;;;;21077432;28;20472;-62
2022/11/09 23:39:34;;;;;;;6.78;3.95;;;;;;;;;;21077259;28;20147;-64
2022/11/09 23:49:36;;;;;;;23.70;6.55;;;;;;;;;;21079280;28;20106;-62
2022/11/09 23:59:38;;;;;;;8.00;4.63;;;;;;;;;;21091901;28;20408;-61
